sensor_id;sensor_type;location;lat;lon;timestamp;P1;durP1;ratioP1;P2;durP2;ratioP2
8098;SDS011;4092;47.876;9.372;2023-09-18T00:00:23;2.90;;;1.10;;
8098;SDS011;4092;47.876;9.372;2023-09-18T00:02:53;2.33;;;1.10;;
8098;SDS011;4092;47.876;9.372;2023-09-18T00:05:20;5.10;;;2.23;;
8098;SDS011;4092;47.876;9.372;2023-09-18T00:07:47;6.27;;;2.00;;
8098;SDS011;4092;47.876;9.372;2023-09-18T00:10:15;2.40;;;1.50;;
8098;SDS011;4092;47.876;9.372;2023-09-18T00:12:42;11.43;;;1.83;;
8098;SDS011;4092;47.876;9.372;2023-09-18T00:15:15;3.00;;;1.40;;
8098;SDS011;4092;47.876;9.372;2023-09-18T00:17:42;4.43;;;2.00;;
8098;SDS011;4092;47.876;9.372;2023-09-18T00:20:18;4.80;;;2.47;;
8098;SDS011;4092;47.876;9.372;2023-09-18T00:22:46;3.53;;;1.60;;
8098;SDS011;4092;47.876;9.372;2023-09-18T00:25:12;4.77;;;1.67;;
8098;SDS011;4092;47.876;9.372;2023-09-18T00:27:40;6.60;;;2.20;;
8098;SDS011;4092;47.876;9.372;2023-09-18T00:30:08;4.10;;;1.63;;
8098;SDS011;4092;47.876;9.372;2023-09-18T00:32:38;1.80;;;1.40;;
8098;SDS011;4092;47.876;9.372;2023-09-18T00:35:07;12.43;;;2.20;;
8098;SDS011;4092;47.876;9.372;2023-09-18T00:37:35;3.70;;;1.90;;
8098;SDS011;4092;47.876;9.372;2023-09-18T00:40:05;3.57;;;1.80;;
8098;SDS011;4092;47.876;9.372;2023-09-18T00:42:32;6.53;;;1.60;;
8098;SDS011;4092;47.876;9.372;2023-09-18T00:44:59;1.67;;;1.50;;
8098;SDS011;4092;47.876;9.372;2023-09-18T00:47:26;6.93;;;2.10;;
8098;SDS011;4092;47.876;9.372;2023-09-18T00:49:56;4.00;;;1.43;;
8098;SDS011;4092;47.876;9.372;2023-09-18T00:52:23;5.13;;;1.40;;
8098;SDS011;4092;47.876;9.372;2023-09-18T00:54:52;4.30;;;1.40;;
8098;SDS011;4092;47.876;9.372;2023-09-18T00:57:20;5.67;;;2.37;;
8098;SDS011;4092;47.876;9.372;2023-09-18T00:59:48;3.30;;;1.43;;
8098;SDS011;4092;47.876;9.372;2023-09-18T01:02:15;9.80;;;1.70;;
8098;SDS011;4092;47.876;9.372;2023-09-18T01:04:42;2.33;;;1.30;;
8098;SDS011;4092;47.876;9.372;2023-09-18T01:07:11;2.77;;;1.90;;
8098;SDS011;4092;47.876;9.372;2023-09-18T01:09:44;4.57;;;1.57;;
8098;SDS011;4092;47.876;9.372;2023-09-18T01:12:12;6.10;;;2.00;;
8098;SDS011;4092;47.876;9.372;2023-09-18T01:14:47;3.50;;;1.53;;
8098;SDS011;4092;47.876;9.372;2023-09-18T01:17:23;7.10;;;1.67;;
8098;SDS011;4092;47.876;9.372;2023-09-18T01:19:52;4.10;;;1.43;;
8098;SDS011;4092;47.876;9.372;2023-09-18T01:22:20;2.27;;;1.57;;
8098;SDS011;4092;47.876;9.372;2023-09-18T01:24:49;5.40;;;1.83;;
8098;SDS011;4092;47.876;9.372;2023-09-18T01:27:16;3.00;;;1.10;;
8098;SDS011;4092;47.876;9.372;2023-09-18T01:29:44;3.90;;;1.77;;
8098;SDS011;4092;47.876;9.372;2023-09-18T01:32:17;5.23;;;2.60;;
8098;SDS011;4092;47.876;9.372;2023-09-18T01:34:45;9.90;;;1.70;;
8098;SDS011;4092;47.876;9.372;2023-09-18T01:37:13;8.57;;;1.77;;
8098;SDS011;4092;47.876;9.372;2023-09-18T01:39:43;3.73;;;2.07;;
8098;SDS011;4092;47.876;9.372;2023-09-18T01:42:13;6.47;;;2.77;;
8098;SDS011;4092;47.876;9.372;2023-09-18T01:44:41;3.77;;;1.47;;
8098;SDS011;4092;47.876;9.372;2023-09-18T01:47:09;3.43;;;2.23;;
8098;SDS011;4092;47.876;9.372;2023-09-18T01:49:39;4.03;;;1.60;;
8098;SDS011;4092;47.876;9.372;2023-09-18T01:52:07;9.10;;;1.57;;
8098;SDS011;4092;47.876;9.372;2023-09-18T01:54:35;5.60;;;1.50;;
8098;SDS011;4092;47.876;9.372;2023-09-18T01:57:03;6.03;;;1.73;;
8098;SDS011;4092;47.876;9.372;2023-09-18T01:59:33;6.07;;;1.97;;
8098;SDS011;4092;47.876;9.372;2023-09-18T02:02:04;4.00;;;1.40;;
8098;SDS011;4092;47.876;9.372;2023-09-18T02:04:32;7.20;;;3.17;;
8098;SDS011;4092;47.876;9.372;2023-09-18T02:06:59;5.37;;;1.83;;
8098;SDS011;4092;47.876;9.372;2023-09-18T02:09:26;9.63;;;3.80;;
8098;SDS011;4092;47.876;9.372;2023-09-18T02:11:53;9.33;;;2.40;;
8098;SDS011;4092;47.876;9.372;2023-09-18T02:14:21;4.83;;;2.13;;
8098;SDS011;4092;47.876;9.372;2023-09-18T02:16:49;8.90;;;1.70;;
8098;SDS011;4092;47.876;9.372;2023-09-18T02:19:16;19.00;;;2.37;;
8098;SDS011;4092;47.876;9.372;2023-09-18T02:21:45;6.97;;;2.37;;
8098;SDS011;4092;47.876;9.372;2023-09-18T02:24:12;7.50;;;2.57;;
8098;SDS011;4092;47.876;9.372;2023-09-18T02:26:39;3.70;;;2.00;;
8098;SDS011;4092;47.876;9.372;2023-09-18T02:29:07;4.50;;;1.73;;
8098;SDS011;4092;47.876;9.372;2023-09-18T02:31:36;4.73;;;1.40;;
8098;SDS011;4092;47.876;9.372;2023-09-18T02:34:05;4.93;;;2.10;;
8098;SDS011;4092;47.876;9.372;2023-09-18T02:36:34;4.73;;;2.80;;
8098;SDS011;4092;47.876;9.372;2023-09-18T02:39:09;8.00;;;2.23;;
8098;SDS011;4092;47.876;9.372;2023-09-18T02:41:41;5.20;;;2.10;;
8098;SDS011;4092;47.876;9.372;2023-09-18T02:44:11;7.00;;;1.90;;
8098;SDS011;4092;47.876;9.372;2023-09-18T02:46:40;3.77;;;2.03;;
8098;SDS011;4092;47.876;9.372;2023-09-18T02:49:09;3.73;;;2.60;;
8098;SDS011;4092;47.876;9.372;2023-09-18T02:51:36;6.30;;;2.37;;
8098;SDS011;4092;47.876;9.372;2023-09-18T02:54:03;4.17;;;2.03;;
8098;SDS011;4092;47.876;9.372;2023-09-18T02:56:30;2.63;;;1.50;;
8098;SDS011;4092;47.876;9.372;2023-09-18T02:58:57;3.97;;;2.97;;
8098;SDS011;4092;47.876;9.372;2023-09-18T03:01:26;8.83;;;1.83;;
8098;SDS011;4092;47.876;9.372;2023-09-18T03:03:52;1.90;;;1.53;;
8098;SDS011;4092;47.876;9.372;2023-09-18T03:06:21;5.83;;;2.73;;
8098;SDS011;4092;47.876;9.372;2023-09-18T03:08:48;1.60;;;1.37;;
8098;SDS011;4092;47.876;9.372;2023-09-18T03:11:15;3.90;;;2.50;;
8098;SDS011;4092;47.876;9.372;2023-09-18T03:13:53;2.50;;;1.80;;
8098;SDS011;4092;47.876;9.372;2023-09-18T03:16:20;5.63;;;1.87;;
8098;SDS011;4092;47.876;9.372;2023-09-18T03:18:47;3.77;;;2.37;;
8098;SDS011;4092;47.876;9.372;2023-09-18T03:21:14;4.83;;;2.83;;
8098;SDS011;4092;47.876;9.372;2023-09-18T03:23:42;2.10;;;1.80;;
8098;SDS011;4092;47.876;9.372;2023-09-18T03:26:10;5.33;;;2.33;;
8098;SDS011;4092;47.876;9.372;2023-09-18T03:28:37;4.20;;;2.13;;
8098;SDS011;4092;47.876;9.372;2023-09-18T03:31:04;3.83;;;1.60;;
8098;SDS011;4092;47.876;9.372;2023-09-18T03:33:32;5.90;;;2.13;;
8098;SDS011;4092;47.876;9.372;2023-09-18T03:35:59;6.83;;;2.17;;
8098;SDS011;4092;47.876;9.372;2023-09-18T03:38:25;3.93;;;1.73;;
8098;SDS011;4092;47.876;9.372;2023-09-18T03:40:54;12.23;;;2.00;;
8098;SDS011;4092;47.876;9.372;2023-09-18T03:43:21;6.47;;;2.27;;
8098;SDS011;4092;47.876;9.372;2023-09-18T03:45:48;4.67;;;2.13;;
8098;SDS011;4092;47.876;9.372;2023-09-18T03:48:15;2.77;;;1.50;;
8098;SDS011;4092;47.876;9.372;2023-09-18T03:50:41;7.47;;;2.00;;
8098;SDS011;4092;47.876;9.372;2023-09-18T03:53:09;9.63;;;1.37;;
8098;SDS011;4092;47.876;9.372;2023-09-18T03:55:36;6.03;;;2.00;;
8098;SDS011;4092;47.876;9.372;2023-09-18T03:58:06;3.67;;;1.43;;
8098;SDS011;4092;47.876;9.372;2023-09-18T04:00:35;7.03;;;1.40;;
8098;SDS011;4092;47.876;9.372;2023-09-18T04:03:03;3.03;;;2.23;;
8098;SDS011;4092;47.876;9.372;2023-09-18T04:05:30;2.30;;;1.43;;
8098;SDS011;4092;47.876;9.372;2023-09-18T04:07:57;3.00;;;2.23;;
8098;SDS011;4092;47.876;9.372;2023-09-18T04:10:24;6.43;;;1.87;;
8098;SDS011;4092;47.876;9.372;2023-09-18T04:12:54;3.30;;;2.23;;
8098;SDS011;4092;47.876;9.372;2023-09-18T04:15:22;4.57;;;2.17;;
8098;SDS011;4092;47.876;9.372;2023-09-18T04:17:50;9.80;;;1.57;;
8098;SDS011;4092;47.876;9.372;2023-09-18T04:20:17;3.73;;;1.30;;
8098;SDS011;4092;47.876;9.372;2023-09-18T04:22:45;1.73;;;1.57;;
8098;SDS011;4092;47.876;9.372;2023-09-18T04:25:14;4.30;;;2.10;;
8098;SDS011;4092;47.876;9.372;2023-09-18T04:27:42;2.70;;;2.00;;
8098;SDS011;4092;47.876;9.372;2023-09-18T04:30:09;2.30;;;1.87;;
8098;SDS011;4092;47.876;9.372;2023-09-18T04:32:38;4.53;;;1.80;;
8098;SDS011;4092;47.876;9.372;2023-09-18T04:35:06;3.93;;;1.30;;
8098;SDS011;4092;47.876;9.372;2023-09-18T04:37:35;2.40;;;1.63;;
8098;SDS011;4092;47.876;9.372;2023-09-18T04:40:05;13.40;;;2.37;;
8098;SDS011;4092;47.876;9.372;2023-09-18T04:42:36;4.40;;;1.73;;
8098;SDS011;4092;47.876;9.372;2023-09-18T04:45:04;2.53;;;1.50;;
8098;SDS011;4092;47.876;9.372;2023-09-18T04:47:32;4.50;;;1.90;;
8098;SDS011;4092;47.876;9.372;2023-09-18T04:50:00;8.63;;;2.13;;
8098;SDS011;4092;47.876;9.372;2023-09-18T04:52:31;6.37;;;3.20;;
8098;SDS011;4092;47.876;9.372;2023-09-18T04:54:58;9.03;;;2.13;;
8098;SDS011;4092;47.876;9.372;2023-09-18T04:57:25;6.73;;;1.73;;
8098;SDS011;4092;47.876;9.372;2023-09-18T04:59:52;3.27;;;2.30;;
8098;SDS011;4092;47.876;9.372;2023-09-18T05:02:19;7.17;;;2.57;;
8098;SDS011;4092;47.876;9.372;2023-09-18T05:04:46;8.30;;;2.37;;
8098;SDS011;4092;47.876;9.372;2023-09-18T05:07:14;9.33;;;1.77;;
8098;SDS011;4092;47.876;9.372;2023-09-18T05:09:41;3.33;;;2.70;;
8098;SDS011;4092;47.876;9.372;2023-09-18T05:12:08;9.03;;;2.20;;
8098;SDS011;4092;47.876;9.372;2023-09-18T05:14:39;2.70;;;1.73;;
8098;SDS011;4092;47.876;9.372;2023-09-18T05:17:06;4.03;;;2.37;;
8098;SDS011;4092;47.876;9.372;2023-09-18T05:19:37;5.33;;;1.77;;
8098;SDS011;4092;47.876;9.372;2023-09-18T05:22:05;6.17;;;2.20;;
8098;SDS011;4092;47.876;9.372;2023-09-18T05:24:36;6.10;;;2.20;;
8098;SDS011;4092;47.876;9.372;2023-09-18T05:27:04;6.87;;;1.73;;
8098;SDS011;4092;47.876;9.372;2023-09-18T05:29:32;9.97;;;2.33;;
8098;SDS011;4092;47.876;9.372;2023-09-18T05:32:02;2.40;;;1.37;;
8098;SDS011;4092;47.876;9.372;2023-09-18T05:34:30;2.80;;;1.77;;
8098;SDS011;4092;47.876;9.372;2023-09-18T05:36:59;7.00;;;1.83;;
8098;SDS011;4092;47.876;9.372;2023-09-18T05:39:26;7.17;;;2.10;;
8098;SDS011;4092;47.876;9.372;2023-09-18T05:41:56;4.83;;;1.80;;
8098;SDS011;4092;47.876;9.372;2023-09-18T05:44:23;3.87;;;2.07;;
8098;SDS011;4092;47.876;9.372;2023-09-18T05:46:50;5.90;;;1.90;;
8098;SDS011;4092;47.876;9.372;2023-09-18T05:49:17;5.53;;;2.00;;
8098;SDS011;4092;47.876;9.372;2023-09-18T05:51:44;7.13;;;1.83;;
8098;SDS011;4092;47.876;9.372;2023-09-18T05:54:12;8.23;;;2.50;;
8098;SDS011;4092;47.876;9.372;2023-09-18T05:56:39;5.47;;;2.13;;
8098;SDS011;4092;47.876;9.372;2023-09-18T05:59:08;5.50;;;2.47;;
8098;SDS011;4092;47.876;9.372;2023-09-18T06:01:35;14.23;;;2.50;;
8098;SDS011;4092;47.876;9.372;2023-09-18T06:04:02;4.73;;;2.73;;
8098;SDS011;4092;47.876;9.372;2023-09-18T06:06:30;8.07;;;2.07;;
8098;SDS011;4092;47.876;9.372;2023-09-18T06:08:57;8.00;;;1.70;;
8098;SDS011;4092;47.876;9.372;2023-09-18T06:11:24;4.60;;;1.90;;
8098;SDS011;4092;47.876;9.372;2023-09-18T06:13:50;10.73;;;2.63;;
8098;SDS011;4092;47.876;9.372;2023-09-18T06:16:19;8.20;;;2.37;;
8098;SDS011;4092;47.876;9.372;2023-09-18T06:18:46;5.30;;;2.10;;
8098;SDS011;4092;47.876;9.372;2023-09-18T06:21:13;6.13;;;1.90;;
8098;SDS011;4092;47.876;9.372;2023-09-18T06:23:40;6.07;;;2.87;;
8098;SDS011;4092;47.876;9.372;2023-09-18T06:26:06;3.60;;;2.20;;
8098;SDS011;4092;47.876;9.372;2023-09-18T06:28:33;10.93;;;2.30;;
8098;SDS011;4092;47.876;9.372;2023-09-18T06:31:00;8.00;;;1.77;;
8098;SDS011;4092;47.876;9.372;2023-09-18T06:33:29;4.03;;;2.00;;
8098;SDS011;4092;47.876;9.372;2023-09-18T06:35:56;12.97;;;3.23;;
8098;SDS011;4092;47.876;9.372;2023-09-18T06:38:23;3.73;;;1.93;;
8098;SDS011;4092;47.876;9.372;2023-09-18T06:40:50;5.60;;;1.80;;
8098;SDS011;4092;47.876;9.372;2023-09-18T06:43:18;9.50;;;1.57;;
8098;SDS011;4092;47.876;9.372;2023-09-18T06:45:45;14.73;;;2.40;;
8098;SDS011;4092;47.876;9.372;2023-09-18T06:48:12;4.20;;;3.30;;
8098;SDS011;4092;47.876;9.372;2023-09-18T06:50:40;5.43;;;2.20;;
8098;SDS011;4092;47.876;9.372;2023-09-18T06:53:07;7.93;;;1.73;;
8098;SDS011;4092;47.876;9.372;2023-09-18T06:55:36;9.07;;;1.90;;
8098;SDS011;4092;47.876;9.372;2023-09-18T06:58:03;4.60;;;2.30;;
8098;SDS011;4092;47.876;9.372;2023-09-18T07:00:30;3.90;;;1.73;;
8098;SDS011;4092;47.876;9.372;2023-09-18T07:02:57;3.57;;;2.07;;
8098;SDS011;4092;47.876;9.372;2023-09-18T07:05:24;2.70;;;1.40;;
8098;SDS011;4092;47.876;9.372;2023-09-18T07:07:52;4.40;;;1.70;;
8098;SDS011;4092;47.876;9.372;2023-09-18T07:10:19;5.97;;;2.33;;
8098;SDS011;4092;47.876;9.372;2023-09-18T07:12:46;5.73;;;1.93;;
8098;SDS011;4092;47.876;9.372;2023-09-18T07:15:13;3.90;;;2.27;;
8098;SDS011;4092;47.876;9.372;2023-09-18T07:17:40;4.07;;;1.73;;
8098;SDS011;4092;47.876;9.372;2023-09-18T07:20:07;4.30;;;1.87;;
8098;SDS011;4092;47.876;9.372;2023-09-18T07:22:39;4.07;;;1.63;;
8098;SDS011;4092;47.876;9.372;2023-09-18T07:25:07;9.53;;;2.27;;
8098;SDS011;4092;47.876;9.372;2023-09-18T07:27:34;10.33;;;2.23;;
8098;SDS011;4092;47.876;9.372;2023-09-18T07:30:05;13.83;;;1.90;;
8098;SDS011;4092;47.876;9.372;2023-09-18T07:32:33;16.50;;;1.93;;
8098;SDS011;4092;47.876;9.372;2023-09-18T07:35:00;2.57;;;1.40;;
8098;SDS011;4092;47.876;9.372;2023-09-18T07:37:26;4.53;;;2.13;;
8098;SDS011;4092;47.876;9.372;2023-09-18T07:39:53;4.03;;;1.20;;
8098;SDS011;4092;47.876;9.372;2023-09-18T07:42:24;2.60;;;1.20;;
8098;SDS011;4092;47.876;9.372;2023-09-18T07:44:52;3.17;;;1.00;;
8098;SDS011;4092;47.876;9.372;2023-09-18T07:47:19;1.80;;;1.20;;
8098;SDS011;4092;47.876;9.372;2023-09-18T07:49:47;4.63;;;1.00;;
8098;SDS011;4092;47.876;9.372;2023-09-18T07:52:15;4.07;;;1.10;;
8098;SDS011;4092;47.876;9.372;2023-09-18T07:54:42;1.67;;;0.90;;
8098;SDS011;4092;47.876;9.372;2023-09-18T07:57:09;1.10;;;0.77;;
8098;SDS011;4092;47.876;9.372;2023-09-18T07:59:38;2.47;;;1.17;;
8098;SDS011;4092;47.876;9.372;2023-09-18T08:02:07;4.50;;;1.00;;
8098;SDS011;4092;47.876;9.372;2023-09-18T08:04:34;4.70;;;1.13;;
8098;SDS011;4092;47.876;9.372;2023-09-18T08:07:01;5.60;;;1.20;;
8098;SDS011;4092;47.876;9.372;2023-09-18T08:09:30;1.73;;;1.00;;
8098;SDS011;4092;47.876;9.372;2023-09-18T08:12:01;2.40;;;1.00;;
8098;SDS011;4092;47.876;9.372;2023-09-18T08:14:28;4.03;;;1.40;;
8098;SDS011;4092;47.876;9.372;2023-09-18T08:17:00;5.60;;;1.07;;
8098;SDS011;4092;47.876;9.372;2023-09-18T08:19:28;1.67;;;0.80;;
8098;SDS011;4092;47.876;9.372;2023-09-18T08:21:55;4.23;;;1.03;;
8098;SDS011;4092;47.876;9.372;2023-09-18T08:24:22;1.60;;;1.20;;
8098;SDS011;4092;47.876;9.372;2023-09-18T08:26:49;5.40;;;2.47;;
8098;SDS011;4092;47.876;9.372;2023-09-18T08:29:16;3.80;;;1.47;;
8098;SDS011;4092;47.876;9.372;2023-09-18T08:31:43;4.50;;;1.20;;
8098;SDS011;4092;47.876;9.372;2023-09-18T08:34:12;2.50;;;0.70;;
8098;SDS011;4092;47.876;9.372;2023-09-18T08:36:39;3.70;;;0.83;;
8098;SDS011;4092;47.876;9.372;2023-09-18T08:39:06;6.93;;;0.97;;
8098;SDS011;4092;47.876;9.372;2023-09-18T08:41:34;2.87;;;1.03;;
8098;SDS011;4092;47.876;9.372;2023-09-18T08:44:04;3.20;;;0.90;;
8098;SDS011;4092;47.876;9.372;2023-09-18T08:46:35;2.33;;;1.33;;
8098;SDS011;4092;47.876;9.372;2023-09-18T08:49:03;1.13;;;0.80;;
8098;SDS011;4092;47.876;9.372;2023-09-18T08:51:32;3.93;;;1.20;;
8098;SDS011;4092;47.876;9.372;2023-09-18T08:54:00;8.53;;;2.93;;
8098;SDS011;4092;47.876;9.372;2023-09-18T08:56:28;1.90;;;1.20;;
8098;SDS011;4092;47.876;9.372;2023-09-18T08:58:56;2.60;;;0.60;;
8098;SDS011;4092;47.876;9.372;2023-09-18T09:01:25;5.03;;;1.43;;
8098;SDS011;4092;47.876;9.372;2023-09-18T09:03:52;2.90;;;1.27;;
8098;SDS011;4092;47.876;9.372;2023-09-18T09:06:20;2.23;;;0.97;;
8098;SDS011;4092;47.876;9.372;2023-09-18T09:08:49;1.40;;;0.67;;
8098;SDS011;4092;47.876;9.372;2023-09-18T09:11:16;2.50;;;1.03;;
8098;SDS011;4092;47.876;9.372;2023-09-18T09:13:44;1.87;;;0.97;;
8098;SDS011;4092;47.876;9.372;2023-09-18T09:16:11;1.40;;;0.73;;
8098;SDS011;4092;47.876;9.372;2023-09-18T09:18:46;1.83;;;0.77;;
8098;SDS011;4092;47.876;9.372;2023-09-18T09:21:14;3.43;;;0.90;;
8098;SDS011;4092;47.876;9.372;2023-09-18T09:23:45;1.87;;;0.90;;
8098;SDS011;4092;47.876;9.372;2023-09-18T09:26:18;1.70;;;1.00;;
8098;SDS011;4092;47.876;9.372;2023-09-18T09:28:46;1.83;;;0.80;;
8098;SDS011;4092;47.876;9.372;2023-09-18T09:31:22;1.33;;;0.97;;
8098;SDS011;4092;47.876;9.372;2023-09-18T09:33:53;1.33;;;0.90;;
8098;SDS011;4092;47.876;9.372;2023-09-18T09:36:20;1.30;;;0.90;;
8098;SDS011;4092;47.876;9.372;2023-09-18T09:38:49;2.80;;;1.13;;
8098;SDS011;4092;47.876;9.372;2023-09-18T09:41:23;3.90;;;1.10;;
8098;SDS011;4092;47.876;9.372;2023-09-18T09:43:51;6.40;;;1.00;;
8098;SDS011;4092;47.876;9.372;2023-09-18T09:46:20;3.50;;;1.13;;
8098;SDS011;4092;47.876;9.372;2023-09-18T09:49:00;1.00;;;0.60;;
8098;SDS011;4092;47.876;9.372;2023-09-18T09:51:28;1.17;;;0.80;;
8098;SDS011;4092;47.876;9.372;2023-09-18T09:53:55;2.07;;;1.00;;
8098;SDS011;4092;47.876;9.372;2023-09-18T09:59:11;1.47;;;0.80;;
8098;SDS011;4092;47.876;9.372;2023-09-18T10:01:39;4.40;;;1.13;;
8098;SDS011;4092;47.876;9.372;2023-09-18T10:04:09;1.37;;;0.70;;
8098;SDS011;4092;47.876;9.372;2023-09-18T10:06:38;1.10;;;0.80;;
8098;SDS011;4092;47.876;9.372;2023-09-18T10:09:09;1.27;;;0.80;;
8098;SDS011;4092;47.876;9.372;2023-09-18T10:11:43;2.83;;;0.70;;
8098;SDS011;4092;47.876;9.372;2023-09-18T10:14:14;1.33;;;0.90;;
8098;SDS011;4092;47.876;9.372;2023-09-18T10:16:45;1.40;;;0.70;;
8098;SDS011;4092;47.876;9.372;2023-09-18T10:19:17;1.40;;;0.70;;
8098;SDS011;4092;47.876;9.372;2023-09-18T10:21:55;1.30;;;0.80;;
8098;SDS011;4092;47.876;9.372;2023-09-18T10:24:31;1.87;;;0.80;;
8098;SDS011;4092;47.876;9.372;2023-09-18T10:27:04;2.20;;;0.97;;
8098;SDS011;4092;47.876;9.372;2023-09-18T10:29:32;1.63;;;1.03;;
8098;SDS011;4092;47.876;9.372;2023-09-18T10:32:02;1.90;;;1.27;;
8098;SDS011;4092;47.876;9.372;2023-09-18T10:34:30;1.40;;;0.70;;
8098;SDS011;4092;47.876;9.372;2023-09-18T10:36:58;2.90;;;1.90;;
8098;SDS011;4092;47.876;9.372;2023-09-18T10:39:28;1.20;;;0.70;;
8098;SDS011;4092;47.876;9.372;2023-09-18T10:41:57;8.13;;;0.93;;
8098;SDS011;4092;47.876;9.372;2023-09-18T10:44:30;1.20;;;0.80;;
8098;SDS011;4092;47.876;9.372;2023-09-18T10:46:57;1.17;;;0.67;;
8098;SDS011;4092;47.876;9.372;2023-09-18T10:49:27;2.27;;;0.80;;
8098;SDS011;4092;47.876;9.372;2023-09-18T10:51:55;2.70;;;0.90;;
8098;SDS011;4092;47.876;9.372;2023-09-18T10:54:24;3.27;;;1.27;;
8098;SDS011;4092;47.876;9.372;2023-09-18T10:56:52;1.33;;;0.97;;
8098;SDS011;4092;47.876;9.372;2023-09-18T10:59:21;1.43;;;0.80;;
8098;SDS011;4092;47.876;9.372;2023-09-18T11:01:50;7.27;;;1.50;;
8098;SDS011;4092;47.876;9.372;2023-09-18T11:04:18;1.50;;;0.90;;
8098;SDS011;4092;47.876;9.372;2023-09-18T11:07:02;1.40;;;0.90;;
8098;SDS011;4092;47.876;9.372;2023-09-18T11:09:32;1.20;;;0.77;;
8098;SDS011;4092;47.876;9.372;2023-09-18T11:12:08;3.20;;;1.00;;
8098;SDS011;4092;47.876;9.372;2023-09-18T11:14:46;2.30;;;1.33;;
8098;SDS011;4092;47.876;9.372;2023-09-18T11:17:30;3.10;;;1.20;;
8098;SDS011;4092;47.876;9.372;2023-09-18T11:20:06;7.87;;;1.37;;
8098;SDS011;4092;47.876;9.372;2023-09-18T11:22:37;1.40;;;0.93;;
8098;SDS011;4092;47.876;9.372;2023-09-18T11:27:59;1.80;;;0.97;;
8098;SDS011;4092;47.876;9.372;2023-09-18T11:30:27;1.53;;;1.07;;
8098;SDS011;4092;47.876;9.372;2023-09-18T11:32:56;7.90;;;0.93;;
8098;SDS011;4092;47.876;9.372;2023-09-18T11:35:24;1.63;;;1.10;;
8098;SDS011;4092;47.876;9.372;2023-09-18T11:38:05;6.43;;;1.33;;
8098;SDS011;4092;47.876;9.372;2023-09-18T11:40:33;6.33;;;3.20;;
8098;SDS011;4092;47.876;9.372;2023-09-18T11:43:21;3.40;;;1.57;;
8098;SDS011;4092;47.876;9.372;2023-09-18T11:45:50;5.10;;;1.20;;
8098;SDS011;4092;47.876;9.372;2023-09-18T11:48:20;1.87;;;1.63;;
8098;SDS011;4092;47.876;9.372;2023-09-18T11:50:53;3.43;;;1.13;;
8098;SDS011;4092;47.876;9.372;2023-09-18T11:53:20;1.87;;;0.97;;
8098;SDS011;4092;47.876;9.372;2023-09-18T11:55:49;1.63;;;1.00;;
8098;SDS011;4092;47.876;9.372;2023-09-18T11:58:16;3.77;;;1.30;;
8098;SDS011;4092;47.876;9.372;2023-09-18T12:00:48;3.23;;;1.27;;
8098;SDS011;4092;47.876;9.372;2023-09-18T12:03:16;1.40;;;1.10;;
8098;SDS011;4092;47.876;9.372;2023-09-18T12:05:51;1.87;;;1.50;;
8098;SDS011;4092;47.876;9.372;2023-09-18T12:08:20;3.63;;;1.40;;
8098;SDS011;4092;47.876;9.372;2023-09-18T12:10:48;3.63;;;1.90;;
8098;SDS011;4092;47.876;9.372;2023-09-18T12:13:16;1.60;;;1.10;;
8098;SDS011;4092;47.876;9.372;2023-09-18T12:15:43;2.03;;;1.30;;
8098;SDS011;4092;47.876;9.372;2023-09-18T12:18:10;3.00;;;1.60;;
8098;SDS011;4092;47.876;9.372;2023-09-18T12:20:44;1.63;;;1.00;;
8098;SDS011;4092;47.876;9.372;2023-09-18T12:23:13;1.50;;;1.10;;
8098;SDS011;4092;47.876;9.372;2023-09-18T12:25:41;2.27;;;1.00;;
8098;SDS011;4092;47.876;9.372;2023-09-18T12:28:11;1.67;;;1.10;;
8098;SDS011;4092;47.876;9.372;2023-09-18T12:30:40;1.70;;;1.20;;
8098;SDS011;4092;47.876;9.372;2023-09-18T12:33:08;2.47;;;1.10;;
8098;SDS011;4092;47.876;9.372;2023-09-18T12:35:35;4.60;;;1.43;;
8098;SDS011;4092;47.876;9.372;2023-09-18T12:38:03;1.97;;;1.20;;
8098;SDS011;4092;47.876;9.372;2023-09-18T12:40:43;4.67;;;2.47;;
8098;SDS011;4092;47.876;9.372;2023-09-18T12:43:11;1.50;;;1.00;;
8098;SDS011;4092;47.876;9.372;2023-09-18T12:45:39;3.50;;;0.90;;
8098;SDS011;4092;47.876;9.372;2023-09-18T12:48:07;1.40;;;1.10;;
8098;SDS011;4092;47.876;9.372;2023-09-18T12:50:35;1.30;;;0.90;;
8098;SDS011;4092;47.876;9.372;2023-09-18T12:53:06;1.50;;;1.03;;
8098;SDS011;4092;47.876;9.372;2023-09-18T12:55:38;2.67;;;1.17;;
8098;SDS011;4092;47.876;9.372;2023-09-18T12:58:08;1.40;;;1.00;;
8098;SDS011;4092;47.876;9.372;2023-09-18T13:00:37;1.50;;;1.40;;
8098;SDS011;4092;47.876;9.372;2023-09-18T13:03:12;2.53;;;1.20;;
8098;SDS011;4092;47.876;9.372;2023-09-18T13:05:39;1.37;;;0.90;;
8098;SDS011;4092;47.876;9.372;2023-09-18T13:08:06;1.23;;;0.90;;
8098;SDS011;4092;47.876;9.372;2023-09-18T13:10:45;1.73;;;1.17;;
8098;SDS011;4092;47.876;9.372;2023-09-18T13:13:17;3.50;;;1.10;;
8098;SDS011;4092;47.876;9.372;2023-09-18T13:15:44;2.30;;;1.20;;
8098;SDS011;4092;47.876;9.372;2023-09-18T13:18:12;1.60;;;1.00;;
8098;SDS011;4092;47.876;9.372;2023-09-18T13:20:41;1.90;;;1.00;;
8098;SDS011;4092;47.876;9.372;2023-09-18T13:23:09;2.07;;;1.50;;
8098;SDS011;4092;47.876;9.372;2023-09-18T13:25:36;2.30;;;1.90;;
8098;SDS011;4092;47.876;9.372;2023-09-18T13:28:07;2.80;;;0.90;;
8098;SDS011;4092;47.876;9.372;2023-09-18T13:30:35;1.67;;;1.00;;
8098;SDS011;4092;47.876;9.372;2023-09-18T13:33:07;1.37;;;1.00;;
8098;SDS011;4092;47.876;9.372;2023-09-18T13:35:35;1.00;;;0.60;;
8098;SDS011;4092;47.876;9.372;2023-09-18T13:38:04;1.20;;;1.00;;
8098;SDS011;4092;47.876;9.372;2023-09-18T13:40:33;1.17;;;0.80;;
8098;SDS011;4092;47.876;9.372;2023-09-18T13:43:01;2.23;;;1.20;;
8098;SDS011;4092;47.876;9.372;2023-09-18T13:45:31;1.60;;;1.13;;
8098;SDS011;4092;47.876;9.372;2023-09-18T13:47:58;3.50;;;1.20;;
8098;SDS011;4092;47.876;9.372;2023-09-18T13:50:25;1.03;;;0.70;;
8098;SDS011;4092;47.876;9.372;2023-09-18T13:52:52;3.00;;;0.70;;
8098;SDS011;4092;47.876;9.372;2023-09-18T13:55:19;1.10;;;0.70;;
8098;SDS011;4092;47.876;9.372;2023-09-18T13:57:47;3.77;;;0.80;;
8098;SDS011;4092;47.876;9.372;2023-09-18T14:00:14;1.67;;;0.70;;
8098;SDS011;4092;47.876;9.372;2023-09-18T14:02:43;1.47;;;0.70;;
8098;SDS011;4092;47.876;9.372;2023-09-18T14:05:10;1.20;;;0.70;;
8098;SDS011;4092;47.876;9.372;2023-09-18T14:07:38;7.50;;;0.80;;
8098;SDS011;4092;47.876;9.372;2023-09-18T14:10:06;1.60;;;0.70;;
8098;SDS011;4092;47.876;9.372;2023-09-18T14:12:43;1.30;;;0.73;;
8098;SDS011;4092;47.876;9.372;2023-09-18T14:15:10;1.57;;;0.87;;
8098;SDS011;4092;47.876;9.372;2023-09-18T14:17:37;2.90;;;1.20;;
8098;SDS011;4092;47.876;9.372;2023-09-18T14:20:07;1.00;;;0.60;;
8098;SDS011;4092;47.876;9.372;2023-09-18T14:22:35;1.10;;;0.80;;
8098;SDS011;4092;47.876;9.372;2023-09-18T14:25:03;2.07;;;0.80;;
8098;SDS011;4092;47.876;9.372;2023-09-18T14:27:31;1.67;;;1.07;;
8098;SDS011;4092;47.876;9.372;2023-09-18T14:29:58;1.63;;;0.90;;
8098;SDS011;4092;47.876;9.372;2023-09-18T14:32:31;1.33;;;0.90;;
8098;SDS011;4092;47.876;9.372;2023-09-18T14:34:59;1.00;;;0.63;;
8098;SDS011;4092;47.876;9.372;2023-09-18T14:37:30;1.10;;;0.70;;
8098;SDS011;4092;47.876;9.372;2023-09-18T14:40:05;1.00;;;0.80;;
8098;SDS011;4092;47.876;9.372;2023-09-18T14:42:36;1.27;;;0.70;;
8098;SDS011;4092;47.876;9.372;2023-09-18T14:45:08;1.63;;;0.70;;
8098;SDS011;4092;47.876;9.372;2023-09-18T14:47:37;3.23;;;0.80;;
8098;SDS011;4092;47.876;9.372;2023-09-18T14:50:05;1.10;;;0.70;;
8098;SDS011;4092;47.876;9.372;2023-09-18T14:52:42;1.00;;;0.70;;
8098;SDS011;4092;47.876;9.372;2023-09-18T14:55:09;1.57;;;0.87;;
8098;SDS011;4092;47.876;9.372;2023-09-18T14:57:36;1.10;;;0.60;;
8098;SDS011;4092;47.876;9.372;2023-09-18T15:00:03;1.30;;;0.80;;
8098;SDS011;4092;47.876;9.372;2023-09-18T15:02:32;1.00;;;0.70;;
8098;SDS011;4092;47.876;9.372;2023-09-18T15:05:00;1.93;;;0.90;;
8098;SDS011;4092;47.876;9.372;2023-09-18T15:07:30;1.13;;;0.70;;
8098;SDS011;4092;47.876;9.372;2023-09-18T15:09:58;1.57;;;0.80;;
8098;SDS011;4092;47.876;9.372;2023-09-18T15:12:25;1.20;;;0.77;;
8098;SDS011;4092;47.876;9.372;2023-09-18T15:14:54;1.03;;;0.60;;
8098;SDS011;4092;47.876;9.372;2023-09-18T15:17:22;3.00;;;0.70;;
8098;SDS011;4092;47.876;9.372;2023-09-18T15:19:50;1.77;;;0.90;;
8098;SDS011;4092;47.876;9.372;2023-09-18T15:22:20;3.13;;;0.90;;
8098;SDS011;4092;47.876;9.372;2023-09-18T15:24:48;2.47;;;0.93;;
8098;SDS011;4092;47.876;9.372;2023-09-18T15:27:17;1.93;;;0.80;;
8098;SDS011;4092;47.876;9.372;2023-09-18T15:29:44;1.37;;;0.80;;